Time;durP1;ratioP1;P1;durP2;ratioP2;P2;SDS_P1;SDS_P2;PMS_P1;PMS_P2;Temp;Humidity;BMP_temperature;BMP_pressure;BME280_temperature;BME280_humidity;BME280_pressure;Samples;Min_cycle;Max_cycle;Signal;HPM_P1;HPM_P2
2021/11/03 00:01:01;;;;;;;10.52;9.52;;;8.30;99.90;;;;;;5092896;28;20942;-80
2021/11/03 00:03:27;;;;;;;10.68;9.65;;;8.30;99.90;;;;;;5091816;28;20496;-80
2021/11/03 00:05:53;;;;;;;10.40;9.40;;;8.30;99.90;;;;;;5092441;28;20463;-79
2021/11/03 00:08:22;;;;;;;9.90;9.00;;;8.30;99.90;;;;;;5091953;28;20530;-80
2021/11/03 00:10:50;;;;;;;10.27;9.27;;;8.30;99.90;;;;;;5091554;28;20388;-80
2021/11/03 00:13:19;;;;;;;9.82;8.85;;;8.40;99.90;;;;;;5092343;28;20415;-80
2021/11/03 00:15:45;;;;;;;9.40;8.40;;;8.30;99.90;;;;;;5092778;28;20380;-80
2021/11/03 00:18:11;;;;;;;10.03;8.97;;;8.30;99.90;;;;;;5092138;28;20730;-80
2021/11/03 00:20:37;;;;;;;10.07;9.10;;;8.30;99.90;;;;;;5090349;28;20404;-80
2021/11/03 00:23:03;;;;;;;10.20;9.30;;;8.30;99.90;;;;;;5092100;28;20372;-79
2021/11/03 00:25:28;;;;;;;11.00;9.80;;;8.30;99.90;;;;;;5092059;28;20877;-80
2021/11/03 00:27:54;;;;;;;9.83;8.93;;;8.30;99.90;;;;;;5091410;28;20392;-80
2021/11/03 00:30:20;;;;;;;10.25;9.30;;;8.30;99.90;;;;;;5092022;28;20854;-80
2021/11/03 00:32:46;;;;;;;10.20;8.38;;;8.30;99.90;;;;;;5089973;28;20407;-80
2021/11/03 00:35:12;;;;;;;9.70;8.85;;;8.30;99.90;;;;;;5091163;28;20385;-80
2021/11/03 00:37:38;;;;;;;9.32;8.52;;;8.20;99.90;;;;;;5091000;28;20392;-79
2021/11/03 00:40:06;;;;;;;9.10;8.30;;;8.30;99.90;;;;;;5091541;28;20392;-79
2021/11/03 00:42:32;;;;;;;9.52;8.63;;;8.30;99.90;;;;;;5090144;28;20389;-79
2021/11/03 00:44:58;;;;;;;9.50;8.52;;;8.20;99.90;;;;;;5089433;28;20388;-80
2021/11/03 00:47:25;;;;;;;9.55;8.55;;;8.20;99.90;;;;;;5090119;28;20369;-79
2021/11/03 00:49:51;;;;;;;9.35;8.50;;;8.10;99.90;;;;;;5090547;28;20882;-80
2021/11/03 00:52:16;;;;;;;10.10;9.10;;;8.00;99.90;;;;;;5090885;28;20477;-81
2021/11/03 00:54:42;;;;;;;8.70;7.90;;;7.90;99.90;;;;;;5091323;28;20400;-82
2021/11/03 00:57:09;;;;;;;9.77;8.88;;;7.70;99.90;;;;;;5091207;28;20384;-79
2021/11/03 00:59:35;;;;;;;9.73;8.82;;;7.60;99.90;;;;;;5090753;28;20396;-79
2021/11/03 01:02:00;;;;;;;10.90;9.80;;;7.40;99.90;;;;;;5091418;28;20822;-79
2021/11/03 01:04:26;;;;;;;12.57;10.23;;;7.40;99.90;;;;;;5090025;28;20422;-80
2021/11/03 01:06:52;;;;;;;10.90;9.82;;;7.30;99.90;;;;;;5090708;28;20381;-80
2021/11/03 01:09:18;;;;;;;11.03;9.97;;;7.10;99.90;;;;;;5089169;28;20384;-79
2021/11/03 01:11:43;;;;;;;10.57;9.57;;;7.00;99.90;;;;;;5090701;28;20376;-80
2021/11/03 01:14:10;;;;;;;10.80;9.73;;;6.80;99.90;;;;;;5090515;28;20520;-79
2021/11/03 01:16:36;;;;;;;10.13;9.20;;;6.70;99.90;;;;;;5090730;28;20410;-80
2021/11/03 01:19:03;;;;;;;11.05;9.93;;;6.50;99.90;;;;;;5090776;28;20377;-79
2021/11/03 01:21:29;;;;;;;11.20;10.20;;;6.40;99.90;;;;;;5090295;28;20392;-80
2021/11/03 01:23:55;;;;;;;10.38;9.48;;;6.30;99.90;;;;;;5090330;28;20393;-80
2021/11/03 01:26:21;;;;;;;10.80;9.80;;;6.20;99.90;;;;;;5090693;28;20463;-80
2021/11/03 01:28:46;;;;;;;10.73;9.63;;;6.10;99.90;;;;;;5089373;28;20708;-80
2021/11/03 01:31:13;;;;;;;11.23;10.23;;;6.00;99.90;;;;;;5092511;28;20389;-79
2021/11/03 01:33:39;;;;;;;11.80;10.60;;;5.90;99.90;;;;;;5094756;28;20464;-79
2021/11/03 01:36:05;;;;;;;11.43;10.43;;;5.80;99.90;;;;;;5094864;28;20380;-79
2021/11/03 01:38:30;;;;;;;12.40;10.98;;;5.70;99.90;;;;;;5094824;28;20394;-79
2021/11/03 01:40:56;;;;;;;13.03;11.63;;;5.70;99.90;;;;;;5095403;28;20373;-79
2021/11/03 01:43:39;;;;;;;12.87;11.57;;;5.60;99.90;;;;;;5094711;28;20426;-80
2021/11/03 01:46:26;;;;;;;13.27;11.98;;;5.50;99.90;;;;;;5093738;28;20869;-80
2021/11/03 01:49:20;;;;;;;12.90;11.68;;;5.40;99.90;;;;;;5094580;28;20392;-79
2021/11/03 01:51:57;;;;;;;12.48;11.27;;;5.30;99.90;;;;;;5091905;28;21147;-80
2021/11/03 01:54:31;;;;;;;14.48;12.95;;;5.30;99.90;;;;;;5089632;28;20404;-80
2021/11/03 01:56:58;;;;;;;13.73;12.35;;;5.30;99.90;;;;;;5093138;28;20481;-80
2021/11/03 01:59:31;;;;;;;12.80;11.60;;;5.20;99.90;;;;;;5094942;28;20396;-80
2021/11/03 02:01:57;;;;;;;12.65;11.45;;;5.20;99.90;;;;;;5094304;28;20498;-80
2021/11/03 02:04:24;;;;;;;12.30;11.18;;;5.10;99.90;;;;;;5094691;28;20921;-80
2021/11/03 02:06:49;;;;;;;13.73;12.25;;;5.00;99.90;;;;;;5093374;28;20574;-80
2021/11/03 02:09:15;;;;;;;13.00;11.77;;;4.90;99.90;;;;;;5092469;28;20415;-80
2021/11/03 02:11:41;;;;;;;13.05;11.85;;;4.80;99.90;;;;;;5094119;28;20372;-79
2021/11/03 02:14:08;;;;;;;14.40;13.00;;;4.80;99.90;;;;;;5093976;28;20399;-79
2021/11/03 02:16:37;;;;;;;12.30;11.03;;;4.70;99.90;;;;;;5093954;28;20464;-80
2021/11/03 02:19:13;;;;;;;13.00;11.70;;;4.60;99.90;;;;;;5092672;28;20416;-79
2021/11/03 02:21:45;;;;;;;13.60;12.15;;;4.60;99.90;;;;;;5091545;28;20912;-79
2021/11/03 02:24:21;;;;;;;13.38;12.07;;;4.50;99.90;;;;;;5094830;28;20394;-79
2021/11/03 02:26:49;;;;;;;13.23;11.90;;;4.50;99.90;;;;;;5094693;28;20978;-80
2021/11/03 02:29:20;;;;;;;13.57;12.27;;;4.40;99.90;;;;;;5094474;28;20391;-79
2021/11/03 02:31:50;;;;;;;13.40;12.00;;;4.30;99.90;;;;;;5094066;28;20890;-79
2021/11/03 02:34:22;;;;;;;14.20;12.82;;;4.30;99.90;;;;;;5094013;28;20450;-80
2021/11/03 02:37:22;;;;;;;13.95;12.50;;;4.20;99.90;;;;;;5094275;28;20385;-80
2021/11/03 02:39:53;;;;;;;13.88;12.48;;;4.10;99.90;;;;;;5094582;28;20382;-79
2021/11/03 02:42:19;;;;;;;12.75;11.55;;;4.10;99.90;;;;;;5091843;28;20467;-79
2021/11/03 02:44:47;;;;;;;14.32;12.82;;;4.10;99.90;;;;;;5094047;28;20480;-79
2021/11/03 02:47:13;;;;;;;14.40;12.90;;;4.00;99.90;;;;;;5093971;28;20421;-81
2021/11/03 02:49:39;;;;;;;16.08;14.48;;;4.00;99.90;;;;;;5091567;28;20373;-81
2021/11/03 02:52:12;;;;;;;14.40;13.00;;;4.00;99.90;;;;;;5092407;28;20385;-79
2021/11/03 02:54:38;;;;;;;15.52;14.07;;;4.00;99.90;;;;;;5092609;28;20479;-79
2021/11/03 02:57:04;;;;;;;15.40;13.90;;;4.00;99.90;;;;;;5093885;28;20456;-79
2021/11/03 02:59:29;;;;;;;14.80;12.70;;;3.90;99.90;;;;;;5093016;28;20461;-78
2021/11/03 03:01:57;;;;;;;13.47;12.10;;;3.90;99.90;;;;;;5092252;28;20376;-78
2021/11/03 03:04:25;;;;;;;13.35;12.15;;;3.80;99.90;;;;;;5094609;28;20403;-79
2021/11/03 03:06:51;;;;;;;14.32;12.93;;;3.70;99.90;;;;;;5093123;28;20399;-80
2021/11/03 03:09:18;;;;;;;15.20;13.70;;;3.70;99.90;;;;;;5091988;28;20507;-80
2021/11/03 03:11:50;;;;;;;15.88;14.25;;;3.60;99.90;;;;;;5092553;28;20376;-79
2021/11/03 03:14:19;;;;;;;15.23;13.73;;;3.60;99.90;;;;;;5093252;28;20400;-79
2021/11/03 03:16:46;;;;;;;15.60;13.97;;;3.50;99.90;;;;;;5092910;28;20381;-80
2021/11/03 03:19:12;;;;;;;16.75;15.02;;;3.50;99.90;;;;;;5090902;28;20397;-80
2021/11/03 03:21:37;;;;;;;16.00;14.38;;;3.50;99.90;;;;;;5093045;28;20463;-79
2021/11/03 03:24:05;;;;;;;14.93;13.47;;;3.50;99.90;;;;;;5092653;28;20553;-80
2021/11/03 03:26:32;;;;;;;15.77;14.10;;;3.50;99.90;;;;;;5091700;28;20396;-79
2021/11/03 03:28:58;;;;;;;16.97;15.17;;;3.40;99.90;;;;;;5092766;28;20466;-79
2021/11/03 03:31:25;;;;;;;16.77;15.10;;;3.30;99.90;;;;;;5091451;28;20750;-80
2021/11/03 03:33:52;;;;;;;15.57;14.10;;;3.30;99.90;;;;;;5091704;28;20399;-80
2021/11/03 03:36:19;;;;;;;15.68;14.07;;;3.20;99.90;;;;;;5090793;28;20377;-80
2021/11/03 03:38:45;;;;;;;16.45;14.80;;;3.20;99.90;;;;;;5091957;28;20408;-79
2021/11/03 03:41:12;;;;;;;15.30;13.90;;;3.10;99.90;;;;;;5091423;28;20459;-79
2021/11/03 03:43:38;;;;;;;15.90;14.27;;;3.20;99.90;;;;;;5091986;28;20385;-80
2021/11/03 03:46:03;;;;;;;17.77;15.88;;;3.10;99.90;;;;;;5091023;28;20460;-79
2021/11/03 03:48:29;;;;;;;19.05;17.10;;;3.10;99.90;;;;;;5091120;28;20372;-80
2021/11/03 03:50:55;;;;;;;18.02;16.17;;;3.00;99.90;;;;;;5092224;28;20461;-81
2021/11/03 03:53:24;;;;;;;17.70;15.90;;;3.00;99.90;;;;;;5091499;28;20427;-79
2021/11/03 03:55:50;;;;;;;16.80;15.07;;;3.00;99.90;;;;;;5090574;28;20396;-80
2021/11/03 03:58:18;;;;;;;17.42;15.63;;;3.00;99.90;;;;;;5091853;28;20896;-80
2021/11/03 04:00:45;;;;;;;17.38;15.45;;;2.90;99.90;;;;;;5090675;28;20380;-79
2021/11/03 04:03:11;;;;;;;17.13;15.32;;;2.90;99.90;;;;;;5090661;28;20388;-79
2021/11/03 04:05:36;;;;;;;16.30;14.57;;;2.80;99.90;;;;;;5090368;28;20479;-79
2021/11/03 04:08:02;;;;;;;17.60;15.53;;;2.80;99.90;;;;;;5090546;28;20461;-78
2021/11/03 04:10:28;;;;;;;17.70;15.90;;;2.80;99.90;;;;;;5090836;28;20414;-80
2021/11/03 04:12:53;;;;;;;19.05;16.33;;;2.70;99.90;;;;;;5091464;28;20454;-79
2021/11/03 04:15:19;;;;;;;17.83;15.93;;;2.70;99.90;;;;;;5091962;28;20855;-79
2021/11/03 04:17:45;;;;;;;17.80;15.93;;;2.70;99.90;;;;;;5092292;28;20361;-78
2021/11/03 04:20:14;;;;;;;21.10;16.90;;;2.70;99.90;;;;;;5091141;28;20420;-79
2021/11/03 04:22:40;;;;;;;23.23;18.05;;;2.70;99.90;;;;;;5090140;28;20429;-80
2021/11/03 04:25:08;;;;;;;19.73;16.52;;;2.70;99.90;;;;;;5090892;28;20392;-79
2021/11/03 04:27:34;;;;;;;24.52;17.63;;;2.70;99.90;;;;;;5091874;28;20380;-80
2021/11/03 04:30:00;;;;;;;21.20;16.90;;;2.60;99.90;;;;;;5091660;28;20420;-79
2021/11/03 04:32:26;;;;;;;20.07;16.93;;;2.60;99.90;;;;;;5091461;28;20411;-79
2021/11/03 04:34:51;;;;;;;22.07;16.90;;;2.60;99.90;;;;;;5089864;28;20912;-79
2021/11/03 04:37:17;;;;;;;17.87;16.07;;;2.60;99.90;;;;;;5091100;28;20730;-79
2021/11/03 04:39:43;;;;;;;18.77;16.60;;;2.60;99.90;;;;;;5089160;28;20458;-78
2021/11/03 04:42:08;;;;;;;20.13;17.60;;;2.60;99.90;;;;;;5091032;28;20384;-79
2021/11/03 04:44:34;;;;;;;20.33;18.17;;;2.70;99.90;;;;;;5090859;28;20888;-78
2021/11/03 04:47:03;;;;;;;22.98;18.13;;;2.60;99.90;;;;;;5091770;28;20444;-80
2021/11/03 04:49:29;;;;;;;20.25;18.20;;;2.70;99.90;;;;;;5091412;28;20376;-79
2021/11/03 04:51:54;;;;;;;20.48;18.35;;;2.70;99.90;;;;;;5091365;28;20376;-80
2021/11/03 04:54:20;;;;;;;24.90;18.88;;;2.70;99.90;;;;;;5090191;28;20414;-79
2021/11/03 04:56:45;;;;;;;22.33;19.13;;;2.70;99.90;;;;;;5091627;28;20471;-80
2021/11/03 04:59:12;;;;;;;21.77;19.37;;;2.70;99.90;;;;;;5091414;28;20758;-80
2021/11/03 05:01:37;;;;;;;21.15;18.85;;;2.70;99.90;;;;;;5091114;28;20875;-79
2021/11/03 05:04:04;;;;;;;22.30;18.50;;;2.70;99.90;;;;;;5090966;28;20475;-80
2021/11/03 05:06:32;;;;;;;22.23;19.55;;;2.70;99.90;;;;;;5088750;28;20414;-80
2021/11/03 05:08:58;;;;;;;23.27;18.45;;;2.70;99.90;;;;;;5090621;28;20408;-80
2021/11/03 05:11:24;;;;;;;22.77;18.38;;;2.60;99.90;;;;;;5090940;28;20380;-80
2021/11/03 05:13:50;;;;;;;23.38;18.80;;;2.70;99.90;;;;;;5090614;28;20400;-80
2021/11/03 05:16:21;;;;;;;24.38;19.05;;;2.60;99.90;;;;;;5090567;28;20384;-78
2021/11/03 05:18:47;;;;;;;27.10;20.63;;;2.60;99.90;;;;;;5091083;28;20369;-81
2021/11/03 05:21:13;;;;;;;37.13;23.43;;;2.60;99.90;;;;;;5090071;28;20379;-78
2021/11/03 05:23:39;;;;;;;37.60;24.10;;;2.60;99.90;;;;;;5089673;28;20403;-80
2021/11/03 05:26:05;;;;;;;40.00;24.92;;;2.50;99.90;;;;;;5091830;28;20372;-80
2021/11/03 05:28:31;;;;;;;40.58;26.40;;;2.50;99.90;;;;;;5090732;28;20745;-79
2021/11/03 05:30:57;;;;;;;31.95;24.25;;;2.50;99.90;;;;;;5090212;28;21805;-77
2021/11/03 05:33:23;;;;;;;41.35;27.45;;;2.40;99.90;;;;;;5090656;28;20416;-81
2021/11/03 05:35:49;;;;;;;29.43;23.27;;;2.40;99.90;;;;;;5089225;28;20472;-79
2021/11/03 05:38:15;;;;;;;34.25;24.85;;;2.30;99.90;;;;;;5090663;28;20380;-80
2021/11/03 05:40:41;;;;;;;27.80;23.02;;;2.20;99.90;;;;;;5089300;28;20422;-80
2021/11/03 05:43:07;;;;;;;31.40;23.70;;;2.20;99.90;;;;;;5090116;28;20711;-79
2021/11/03 05:45:32;;;;;;;25.83;21.75;;;2.20;99.90;;;;;;5087996;28;20892;-79
2021/11/03 05:47:58;;;;;;;28.20;22.20;;;2.10;99.90;;;;;;5089772;28;20387;-81
2021/11/03 05:50:49;;;;;;;29.15;23.45;;;2.10;99.90;;;;;;5089412;28;20380;-80
2021/11/03 05:53:20;;;;;;;29.88;24.38;;;2.20;99.90;;;;;;5088131;28;20407;-79
2021/11/03 05:55:45;;;;;;;27.92;24.48;;;2.20;99.90;;;;;;5090519;28;20380;-79
2021/11/03 05:58:11;;;;;;;27.88;22.50;;;2.20;99.90;;;;;;5090181;28;20910;-79
2021/11/03 06:00:38;;;;;;;24.75;21.33;;;2.20;99.90;;;;;;5090034;28;20445;-80
2021/11/03 06:03:04;;;;;;;27.90;22.13;;;2.20;99.90;;;;;;5089053;28;20949;-78
2021/11/03 06:05:30;;;;;;;29.57;23.93;;;2.30;99.90;;;;;;5089339;28;20486;-79
2021/11/03 06:07:59;;;;;;;35.20;26.30;;;2.30;99.90;;;;;;5090347;28;20447;-80
2021/11/03 06:10:30;;;;;;;29.60;24.52;;;2.40;99.90;;;;;;5089959;28;20916;-80
2021/11/03 06:12:56;;;;;;;32.22;25.00;;;2.40;99.90;;;;;;5090438;28;20392;-80
2021/11/03 06:15:23;;;;;;;29.92;24.23;;;2.40;99.90;;;;;;5090357;28;20950;-79
2021/11/03 06:17:51;;;;;;;31.23;24.02;;;2.40;99.90;;;;;;5091649;28;20384;-80
2021/11/03 06:20:17;;;;;;;38.28;26.33;;;2.40;99.90;;;;;;5093988;28;20387;-79
2021/11/03 06:22:43;;;;;;;42.30;27.83;;;2.50;99.90;;;;;;5093426;28;20459;-79
2021/11/03 06:25:21;;;;;;;48.37;29.03;;;2.50;99.90;;;;;;5092778;28;20400;-80
2021/11/03 06:27:47;;;;;;;49.30;30.05;;;2.50;99.90;;;;;;5092516;28;20887;-80
2021/11/03 06:30:15;;;;;;;52.88;32.03;;;2.50;99.90;;;;;;5091361;28;20384;-79
2021/11/03 06:32:41;;;;;;;43.92;28.27;;;2.60;99.90;;;;;;5093678;28;20363;-80
2021/11/03 06:35:09;;;;;;;45.97;29.20;;;2.60;99.90;;;;;;5093891;28;20460;-81
2021/11/03 06:37:36;;;;;;;37.80;27.70;;;2.70;99.90;;;;;;5095065;28;20372;-79
2021/11/03 06:40:04;;;;;;;45.92;27.45;;;2.70;99.90;;;;;;5092426;28;20472;-79
2021/11/03 06:42:31;;;;;;;39.63;26.10;;;2.80;99.90;;;;;;5093693;28;20466;-81
2021/11/03 06:44:56;;;;;;;51.60;28.80;;;2.90;99.90;;;;;;5092233;28;20746;-80
2021/11/03 06:47:22;;;;;;;30.43;23.63;;;2.90;99.90;;;;;;5092736;28;20377;-80
2021/11/03 06:49:47;;;;;;;46.08;26.95;;;3.00;99.90;;;;;;5093563;28;20877;-79
2021/11/03 06:52:14;;;;;;;38.90;28.67;;;3.10;99.90;;;;;;5091926;28;20364;-81
2021/11/03 06:54:40;;;;;;;40.03;27.63;;;3.10;99.90;;;;;;5092209;28;20980;-79
2021/11/03 06:57:06;;;;;;;37.20;26.88;;;3.00;99.90;;;;;;5092766;28;20503;-79
2021/11/03 06:59:31;;;;;;;36.97;27.80;;;3.00;99.90;;;;;;5093304;28;20463;-80
2021/11/03 07:01:57;;;;;;;54.47;30.17;;;3.00;99.90;;;;;;5093096;28;20740;-79
2021/11/03 07:04:23;;;;;;;263.93;61.07;;;3.10;99.90;;;;;;5091881;28;20392;-80
2021/11/03 07:06:49;;;;;;;289.27;66.63;;;3.10;99.90;;;;;;5091790;28;20456;-80
2021/11/03 07:09:15;;;;;;;89.00;33.72;;;3.10;99.90;;;;;;5092580;28;20961;-80
2021/11/03 07:11:40;;;;;;;37.90;26.77;;;3.20;99.90;;;;;;5092835;28;20388;-79
2021/11/03 07:14:06;;;;;;;30.40;24.77;;;3.30;99.90;;;;;;5092621;28;20431;-79
2021/11/03 07:16:33;;;;;;;32.47;26.17;;;3.30;99.90;;;;;;5092248;28;20373;-80
2021/11/03 07:18:59;;;;;;;32.40;25.80;;;3.30;99.90;;;;;;5092310;28;20381;-80
2021/11/03 07:21:24;;;;;;;29.83;25.47;;;3.40;99.90;;;;;;5092253;28;20450;-81
2021/11/03 07:23:50;;;;;;;29.35;24.38;;;3.50;99.90;;;;;;5093270;28;20373;-80
2021/11/03 07:26:16;;;;;;;24.58;22.02;;;3.70;99.90;;;;;;5092785;28;20788;-79
2021/11/03 07:28:42;;;;;;;25.67;22.85;;;3.80;99.90;;;;;;5092748;28;20494;-79
2021/11/03 07:31:08;;;;;;;26.20;23.40;;;4.00;99.90;;;;;;5093237;28;20377;-78
2021/11/03 07:33:35;;;;;;;23.73;21.33;;;4.10;99.90;;;;;;5093120;28;20898;-80
2021/11/03 07:36:01;;;;;;;23.75;21.25;;;4.30;99.90;;;;;;5093036;28;20376;-78
2021/11/03 07:38:27;;;;;;;22.15;19.88;;;4.50;99.90;;;;;;5092552;28;20383;-80
2021/11/03 07:40:55;;;;;;;24.60;21.98;;;4.60;99.90;;;;;;5092728;28;20487;-80
2021/11/03 07:43:24;;;;;;;23.38;20.98;;;4.60;99.90;;;;;;5091614;28;20380;-80
2021/11/03 07:45:53;;;;;;;21.73;19.52;;;4.70;99.90;;;;;;5091223;28;20392;-80
2021/11/03 07:48:20;;;;;;;23.33;21.03;;;4.90;99.90;;;;;;5091510;28;20390;-80
2021/11/03 07:50:51;;;;;;;21.70;19.55;;;5.00;99.90;;;;;;5091576;28;20384;-80
2021/11/03 07:53:18;;;;;;;23.58;21.02;;;5.30;99.90;;;;;;5093012;28;20426;-80
2021/11/03 07:55:47;;;;;;;22.55;20.25;;;5.20;99.90;;;;;;5092139;28;20394;-78
2021/11/03 07:58:14;;;;;;;21.55;19.40;;;5.30;99.90;;;;;;5090676;28;20387;-79
2021/11/03 08:00:40;;;;;;;22.60;20.40;;;5.40;99.90;;;;;;5091267;28;20723;-80
2021/11/03 08:03:06;;;;;;;22.38;20.17;;;5.50;99.90;;;;;;5090853;28;20393;-79
2021/11/03 08:05:33;;;;;;;21.20;19.20;;;5.60;99.90;;;;;;5113044;28;20442;-80
2021/11/03 08:08:03;;;;;;;21.40;19.13;;;5.70;99.90;;;;;;5111760;28;20386;-79
2021/11/03 08:10:29;;;;;;;20.55;18.45;;;5.90;99.90;;;;;;5111762;27;20445;-80
2021/11/03 08:12:56;;;;;;;21.63;19.33;;;6.00;99.90;;;;;;5111985;28;20370;-80
2021/11/03 08:15:23;;;;;;;19.90;18.00;;;6.00;99.90;;;;;;5112944;28;20381;-78
2021/11/03 08:17:49;;;;;;;20.38;18.38;;;6.00;99.90;;;;;;5111165;28;20456;-80
2021/11/03 08:20:20;;;;;;;19.73;17.63;;;6.10;99.90;;;;;;5112623;28;20375;-79
2021/11/03 08:22:46;;;;;;;20.60;18.50;;;6.20;99.90;;;;;;5128009;27;20461;-79
2021/11/03 08:25:12;;;;;;;20.20;18.30;;;6.20;99.90;;;;;;5112161;28;20458;-79
2021/11/03 08:27:40;;;;;;;19.87;17.97;;;6.30;99.90;;;;;;5112067;27;20812;-79
2021/11/03 08:30:08;;;;;;;20.50;18.50;;;6.30;99.90;;;;;;5112714;28;20374;-79
2021/11/03 08:32:39;;;;;;;20.97;18.87;;;6.50;99.90;;;;;;5128277;27;20504;-79
2021/11/03 08:35:10;;;;;;;20.80;18.80;;;6.50;99.90;;;;;;5113101;28;20395;-79
2021/11/03 08:37:38;;;;;;;19.48;17.58;;;6.60;99.90;;;;;;5113149;28;20374;-80
2021/11/03 08:40:09;;;;;;;22.08;19.92;;;6.60;99.90;;;;;;5110889;28;20383;-79
2021/11/03 08:42:34;;;;;;;22.48;20.40;;;6.70;99.90;;;;;;5111540;28;20391;-80
2021/11/03 08:45:00;;;;;;;24.17;21.55;;;6.80;99.90;;;;;;5113561;28;20694;-79
2021/11/03 08:47:26;;;;;;;22.58;20.38;;;6.90;99.90;;;;;;5112856;28;20455;-80
2021/11/03 08:49:53;;;;;;;23.50;21.20;;;7.00;99.90;;;;;;5113184;28;20450;-77
2021/11/03 08:52:19;;;;;;;24.30;20.20;;;7.00;99.90;;;;;;5112392;28;20445;-78
2021/11/03 08:54:46;;;;;;;19.52;17.60;;;7.10;99.90;;;;;;5111660;28;20434;-79
2021/11/03 08:57:13;;;;;;;19.77;17.88;;;7.20;99.90;;;;;;5111763;28;20402;-80
2021/11/03 08:59:39;;;;;;;20.17;18.27;;;7.20;99.90;;;;;;5113274;28;20367;-79
2021/11/03 09:02:06;;;;;;;22.17;20.02;;;7.30;99.90;;;;;;5113055;28;20883;-80
2021/11/03 09:04:33;;;;;;;21.92;19.83;;;7.40;99.90;;;;;;5113403;28;20397;-80
2021/11/03 09:06:59;;;;;;;19.88;17.98;;;7.50;99.90;;;;;;5113117;28;20374;-81
2021/11/03 09:09:26;;;;;;;20.53;18.43;;;7.50;99.90;;;;;;5111593;28;20375;-80
2021/11/03 09:11:52;;;;;;;20.17;18.27;;;7.70;99.90;;;;;;5111169;27;20436;-80
2021/11/03 09:14:20;;;;;;;19.55;17.63;;;7.70;99.90;;;;;;5111840;28;20395;-79
2021/11/03 09:16:49;;;;;;;19.40;17.48;;;7.80;99.90;;;;;;5111064;27;20440;-79
2021/11/03 09:19:15;;;;;;;19.25;17.33;;;7.90;99.90;;;;;;5110937;28;20457;-78
2021/11/03 09:21:41;;;;;;;18.83;16.92;;;8.00;99.90;;;;;;5110763;28;20931;-79
2021/11/03 09:24:06;;;;;;;17.43;15.80;;;8.10;99.90;;;;;;5111148;28;20485;-79
2021/11/03 09:26:32;;;;;;;19.08;17.20;;;8.30;99.90;;;;;;5110480;27;20467;-78
2021/11/03 09:28:59;;;;;;;18.35;16.55;;;8.40;99.90;;;;;;5110955;28;20923;-79
2021/11/03 09:31:25;;;;;;;18.73;16.83;;;8.50;99.90;;;;;;5109527;28;20473;-79
2021/11/03 09:33:51;;;;;;;17.58;15.70;;;8.70;99.90;;;;;;5109787;28;20432;-79
2021/11/03 09:36:21;;;;;;;17.63;15.93;;;8.80;99.90;;;;;;5111007;27;20382;-80
2021/11/03 09:38:48;;;;;;;18.43;16.27;;;8.80;99.90;;;;;;5109548;28;20471;-79
2021/11/03 09:41:19;;;;;;;16.52;14.77;;;8.90;99.90;;;;;;5109575;28;20927;-80
2021/11/03 09:44:11;;;;;;;16.35;14.80;;;9.00;99.90;;;;;;5090869;28;20383;-80
2021/11/03 09:46:39;;;;;;;17.13;15.43;;;9.10;99.90;;;;;;5085498;28;20379;-80
2021/11/03 09:49:42;;;;;;;16.40;14.90;;;9.10;99.90;;;;;;5096543;28;20374;-79
2021/11/03 09:52:35;;;;;;;16.88;15.18;;;9.30;99.90;;;;;;5014764;28;20425;-80
2021/11/03 09:55:13;;;;;;;16.85;14.95;;;9.30;99.90;;;;;;5091726;28;20404;-79
2021/11/03 09:57:47;;;;;;;17.03;15.40;;;9.50;99.90;;;;;;5100867;28;20492;-79
2021/11/03 10:00:20;;;;;;;15.75;14.25;;;9.70;99.90;;;;;;5102548;28;20367;-80
2021/11/03 10:03:04;;;;;;;15.93;14.35;;;10.00;99.90;;;;;;5101423;28;20388;-79
2021/11/03 10:05:36;;;;;;;15.05;13.35;;;10.20;99.90;;;;;;5101403;28;20729;-79
2021/11/03 10:08:05;;;;;;;15.25;13.77;;;10.30;99.90;;;;;;5100687;28;20391;-78
2021/11/03 10:10:41;;;;;;;15.55;14.00;;;10.40;99.90;;;;;;5098738;28;20465;-80
2021/11/03 10:13:22;;;;;;;15.13;13.63;;;10.60;99.90;;;;;;5100481;27;20765;-79
2021/11/03 10:15:55;;;;;;;14.90;13.50;;;10.70;99.90;;;;;;5100465;28;20376;-79
2021/11/03 10:18:22;;;;;;;14.48;12.98;;;10.80;99.90;;;;;;5101417;28;20375;-79
2021/11/03 10:21:01;;;;;;;13.63;12.32;;;10.90;99.90;;;;;;5098699;28;20737;-81
2021/11/03 10:23:31;;;;;;;14.60;13.20;;;11.00;99.90;;;;;;5101072;28;20349;-80
2021/11/03 10:26:12;;;;;;;14.18;12.88;;;11.00;99.90;;;;;;5099957;28;20469;-81
2021/11/03 10:28:42;;;;;;;14.25;12.75;;;11.20;99.90;;;;;;5099312;28;20419;-81
2021/11/03 10:31:42;;;;;;;14.50;13.00;;;11.30;99.90;;;;;;5100965;28;20768;-80
2021/11/03 10:34:20;;;;;;;14.13;12.82;;;11.30;99.90;;;;;;5099715;28;20434;-79
2021/11/03 10:36:57;;;;;;;13.52;12.18;;;11.20;99.90;;;;;;5100940;28;20379;-79
2021/11/03 10:39:23;;;;;;;13.77;12.48;;;11.20;99.90;;;;;;5100654;28;20965;-79
2021/11/03 10:42:00;;;;;;;13.67;12.37;;;11.40;99.90;;;;;;5100421;27;20395;-81
2021/11/03 10:44:32;;;;;;;15.13;12.70;;;11.60;99.90;;;;;;5095209;28;20378;-80
2021/11/03 10:47:10;;;;;;;13.73;11.63;;;11.70;99.90;;;;;;5099476;28;20802;-81
2021/11/03 10:49:46;;;;;;;13.52;12.23;;;11.80;99.90;;;;;;5099941;28;20402;-80
2021/11/03 10:52:20;;;;;;;13.25;11.95;;;11.90;99.90;;;;;;5097010;28;20388;-80
2021/11/03 10:54:49;;;;;;;13.00;11.68;;;11.80;99.90;;;;;;5097982;28;20402;-80
2021/11/03 10:57:36;;;;;;;13.25;12.00;;;11.80;99.90;;;;;;5100755;28;20904;-80
2021/11/03 11:00:23;;;;;;;12.63;11.40;;;11.90;99.90;;;;;;5092232;28;20387;-81
2021/11/03 11:03:21;;;;;;;25.15;13.02;;;12.10;99.90;;;;;;5099030;28;20395;-80
2021/11/03 11:05:55;;;;;;;13.93;12.38;;;12.10;99.90;;;;;;5098901;28;20380;-80
2021/11/03 11:08:29;;;;;;;44.65;17.38;;;12.20;99.90;;;;;;5100029;28;20388;-80
2021/11/03 11:11:04;;;;;;;15.98;11.90;;;12.20;99.90;;;;;;5098427;28;20481;-80
2021/11/03 11:13:34;;;;;;;11.77;10.57;;;12.30;99.90;;;;;;5099189;28;20500;-80
2021/11/03 11:16:03;;;;;;;13.18;11.63;;;12.40;99.90;;;;;;5099804;28;20380;-80
2021/11/03 11:18:38;;;;;;;13.52;11.23;;;12.50;99.90;;;;;;5098237;28;20368;-81
2021/11/03 11:21:22;;;;;;;17.17;12.90;;;12.50;99.90;;;;;;5105043;28;20473;-80
2021/11/03 11:23:59;;;;;;;13.57;12.27;;;12.50;99.90;;;;;;5110603;28;20412;-81
2021/11/03 11:26:46;;;;;;;11.82;10.63;;;12.60;99.90;;;;;;5092726;28;20376;-81
2021/11/03 11:29:23;;;;;;;13.17;11.87;;;12.70;99.90;;;;;;5090764;28;20889;-79
2021/11/03 11:32:02;;;;;;;13.18;11.02;;;12.60;99.90;;;;;;5091996;28;20472;-80
2021/11/03 11:34:46;;;;;;;13.10;11.80;;;12.50;99.90;;;;;;5084045;28;20766;-79
2021/11/03 11:37:15;;;;;;;15.33;12.27;;;12.40;99.90;;;;;;5091967;28;20380;-80
2021/11/03 11:39:41;;;;;;;16.50;12.82;;;12.20;99.90;;;;;;5090718;28;20463;-79
2021/11/03 11:42:28;;;;;;;12.60;11.35;;;12.30;99.90;;;;;;5092626;28;20470;-80
2021/11/03 11:44:59;;;;;;;11.65;10.45;;;12.50;99.90;;;;;;5072188;28;20404;-80
2021/11/03 11:47:42;;;;;;;11.35;10.25;;;12.70;99.90;;;;;;5073625;28;20981;-79
2021/11/03 11:50:23;;;;;;;12.23;11.02;;;12.90;99.90;;;;;;5100107;28;20468;-79
2021/11/03 11:52:49;;;;;;;11.90;10.77;;;12.80;99.90;;;;;;5088901;28;20396;-80
2021/11/03 11:55:14;;;;;;;12.03;10.93;;;12.90;99.90;;;;;;5090360;28;20388;-80
2021/11/03 11:57:56;;;;;;;10.73;9.10;;;12.80;99.90;;;;;;5080685;27;20403;-81
2021/11/03 12:00:23;;;;;;;10.70;9.50;;;12.80;99.90;;;;;;5096139;28;20388;-80
2021/11/03 12:02:52;;;;;;;15.93;10.02;;;12.80;99.90;;;;;;5095311;28;20433;-79
2021/11/03 12:05:20;;;;;;;10.02;9.02;;;12.80;99.90;;;;;;5095976;28;20497;-81
2021/11/03 12:08:14;;;;;;;11.20;10.10;;;12.90;99.90;;;;;;5095297;28;20377;-81
2021/11/03 12:10:55;;;;;;;11.15;9.98;;;12.80;99.90;;;;;;5096608;28;20363;-81
2021/11/03 12:13:22;;;;;;;10.30;9.40;;;12.70;99.90;;;;;;5094035;28;20406;-79
2021/11/03 12:15:50;;;;;;;11.38;10.20;;;12.50;99.90;;;;;;5091961;28;20437;-82
2021/11/03 12:18:28;;;;;;;10.68;9.68;;;12.40;99.90;;;;;;5091163;28;20371;-80
2021/11/03 12:21:03;;;;;;;9.90;8.90;;;12.20;99.90;;;;;;5095599;28;20390;-80
2021/11/03 12:23:54;;;;;;;11.02;10.02;;;12.20;99.90;;;;;;5094673;28;20756;-80
2021/11/03 12:26:29;;;;;;;11.45;10.25;;;12.20;99.90;;;;;;5095289;28;20399;-79
2021/11/03 12:29:02;;;;;;;10.82;9.80;;;12.20;99.90;;;;;;5095383;28;20391;-80
2021/11/03 12:31:46;;;;;;;10.65;9.65;;;12.10;99.90;;;;;;5094938;28;20467;-81
2021/11/03 12:34:19;;;;;;;9.95;8.95;;;12.00;99.90;;;;;;5093460;28;20627;-79
2021/11/03 12:36:52;;;;;;;9.40;8.15;;;12.00;99.90;;;;;;5095467;28;20395;-79
2021/11/03 12:39:29;;;;;;;8.60;7.70;;;11.90;99.90;;;;;;5094814;28;20443;-80
2021/11/03 12:42:01;;;;;;;7.18;6.53;;;11.90;99.90;;;;;;5090091;28;21097;-81
2021/11/03 12:44:34;;;;;;;7.80;7.07;;;11.80;99.90;;;;;;5090737;28;20375;-79
2021/11/03 12:47:00;;;;;;;7.10;6.50;;;11.70;99.90;;;;;;5090007;28;20469;-79
2021/11/03 12:49:28;;;;;;;8.23;7.43;;;11.60;99.90;;;;;;5090240;28;21192;-80